createdAt,value
2022-08-04T00:00:07.739Z,24.12
2022-08-04T00:00:45.104Z,24.10
2022-08-04T00:01:43.373Z,24.23
2022-08-04T00:02:35.870Z,24.32
2022-08-04T00:03:19.422Z,24.27
2022-08-04T00:04:14.571Z,24.27
2022-08-04T00:04:53.604Z,24.28
2022-08-04T00:05:40.845Z,24.33
2022-08-04T00:06:42.144Z,24.34
2022-08-04T00:07:44.349Z,24.37
2022-08-04T00:08:22.239Z,24.30
2022-08-04T00:09:00.684Z,24.34
2022-08-04T00:09:38.183Z,24.27
2022-08-04T00:10:11.162Z,24.23
2022-08-04T00:10:49.791Z,24.23
2022-08-04T00:11:24.207Z,24.14
2022-08-04T00:12:00.965Z,24.14
2022-08-04T00:12:39.656Z,24.18
2022-08-04T00:13:12.502Z,24.19
2022-08-04T00:14:12.070Z,24.15
2022-08-04T00:14:50.122Z,24.21
2022-08-04T00:15:24.062Z,24.20
2022-08-04T00:16:07.903Z,24.15
2022-08-04T00:16:41.705Z,24.17
2022-08-04T00:17:14.645Z,24.23
2022-08-04T00:17:54.281Z,24.23
2022-08-04T00:18:41.107Z,24.22
2022-08-04T00:19:52.243Z,24.22
2022-08-04T00:20:25.074Z,24.24
2022-08-04T00:21:00.689Z,24.24
2022-08-04T00:21:38.741Z,24.23
2022-08-04T00:22:13.451Z,24.21
2022-08-04T00:22:46.837Z,24.19
2022-08-04T00:23:19.176Z,24.15
2022-08-04T00:24:10.549Z,24.00
2022-08-04T00:24:45.071Z,24.07
2022-08-04T00:25:17.069Z,24.18
2022-08-04T00:25:49.686Z,24.18
2022-08-04T00:26:22.067Z,24.18
2022-08-04T00:26:54.689Z,24.25
2022-08-04T00:27:30.137Z,24.24
2022-08-04T00:28:02.253Z,24.31
2022-08-04T00:28:37.282Z,24.28
2022-08-04T00:29:09.370Z,24.30
2022-08-04T00:29:41.553Z,24.32
2022-08-04T00:30:13.494Z,24.28
2022-08-04T00:30:45.926Z,24.24
2022-08-04T00:31:19.379Z,24.33
2022-08-04T00:32:13.079Z,24.27
2022-08-04T00:32:45.857Z,24.17
2022-08-04T00:33:21.736Z,24.16
2022-08-04T00:33:54.599Z,24.15
2022-08-04T00:34:27.899Z,24.23
2022-08-04T00:35:00.658Z,24.18
2022-08-04T00:35:33.507Z,24.24
2022-08-04T00:36:06.096Z,24.26
2022-08-04T00:36:38.470Z,24.17
2022-08-04T00:37:10.834Z,24.25
2022-08-04T00:37:46.478Z,24.26
2022-08-04T00:38:19.725Z,24.26
2022-08-04T00:38:52.355Z,24.10
2022-08-04T00:39:25.308Z,24.13
2022-08-04T00:39:57.759Z,24.08
2022-08-04T00:40:49.008Z,24.12
2022-08-04T00:41:35.831Z,24.25
2022-08-04T00:43:05.253Z,24.19
2022-08-04T00:44:00.115Z,24.17
2022-08-04T00:44:57.362Z,24.25
2022-08-04T00:46:15.872Z,24.21
2022-08-04T00:47:23.230Z,24.20
2022-08-04T00:48:04.345Z,24.26
2022-08-04T00:49:06.919Z,24.01
2022-08-04T00:50:06.165Z,23.97
2022-08-04T00:50:49.878Z,24.03
2022-08-04T00:51:47.399Z,23.97
2022-08-04T00:53:07.956Z,23.86
2022-08-04T00:54:13.921Z,23.90
2022-08-04T00:55:13.720Z,24.00
2022-08-04T00:56:09.093Z,24.01
2022-08-04T00:57:30.171Z,24.12
2022-08-04T00:58:18.939Z,24.01
2022-08-04T00:59:22.120Z,23.95
2022-08-04T00:59:57.429Z,23.89
2022-08-04T01:00:38.313Z,23.96
2022-08-04T01:01:39.542Z,23.96
2022-08-04T01:02:26.782Z,23.89
2022-08-04T01:03:20.270Z,23.94
2022-08-04T01:04:22.296Z,23.93
2022-08-04T01:05:37.647Z,23.92
2022-08-04T01:06:35.534Z,23.76
2022-08-04T01:07:35.367Z,23.75
2022-08-04T01:08:09.987Z,23.77
2022-08-04T01:09:00.229Z,23.77
2022-08-04T01:09:52.788Z,23.76
2022-08-04T01:10:43.669Z,23.80
2022-08-04T01:11:57.266Z,23.63
2022-08-04T01:13:15.192Z,23.66
2022-08-04T01:14:13.756Z,23.69
2022-08-04T01:15:19.830Z,23.65
2022-08-04T01:15:59.561Z,23.61
2022-08-04T01:16:40.095Z,23.62
2022-08-04T01:17:36.215Z,23.65
2022-08-04T01:18:09.344Z,23.68
2022-08-04T01:18:53.995Z,23.68
2022-08-04T01:19:57.796Z,23.67
2022-08-04T01:21:06.902Z,23.67
2022-08-04T01:21:57.424Z,23.52
2022-08-04T01:22:32.092Z,23.52
2022-08-04T01:23:33.326Z,23.58
2022-08-04T01:24:30.765Z,23.61
2022-08-04T01:25:20.651Z,23.66
2022-08-04T01:26:42.475Z,23.64
2022-08-04T01:27:36.907Z,23.68
2022-08-04T01:28:29.631Z,23.70
2022-08-04T01:29:09.480Z,23.70
2022-08-04T01:29:49.879Z,23.72
2022-08-04T01:30:21.938Z,23.50
2022-08-04T01:30:58.267Z,23.53
2022-08-04T01:31:50.638Z,23.59
2022-08-04T01:32:41.014Z,23.61
2022-08-04T01:33:17.707Z,23.67
2022-08-04T01:34:03.929Z,23.68
2022-08-04T01:34:44.168Z,23.62
2022-08-04T01:35:22.073Z,23.55
2022-08-04T01:36:12.809Z,23.61
2022-08-04T01:36:59.713Z,23.54
2022-08-04T01:37:40.756Z,23.57
2022-08-04T01:38:21.431Z,23.65
2022-08-04T01:38:54.818Z,23.71
2022-08-04T01:39:42.462Z,23.66
2022-08-04T01:40:15.964Z,23.65
2022-08-04T01:40:49.599Z,23.65
2022-08-04T01:41:32.192Z,23.62
2022-08-04T01:42:09.518Z,23.58
2022-08-04T01:42:45.514Z,23.61
2022-08-04T01:43:19.922Z,23.60
2022-08-04T01:43:56.226Z,23.63
2022-08-04T01:44:29.773Z,23.65
2022-08-04T01:45:08.250Z,23.65
2022-08-04T01:45:41.703Z,23.53
2022-08-04T01:46:16.173Z,23.44
2022-08-04T01:46:51.783Z,23.45
2022-08-04T01:47:28.867Z,23.51
2022-08-04T01:48:03.489Z,23.57
2022-08-04T01:48:39.428Z,23.51
2022-08-04T01:49:12.794Z,23.41
2022-08-04T01:49:49.359Z,23.42
2022-08-04T01:50:22.776Z,23.52
2022-08-04T01:50:58.650Z,23.41
2022-08-04T01:51:36.077Z,23.33
2022-08-04T01:52:10.530Z,23.36
2022-08-04T01:52:48.893Z,23.37
2022-08-04T01:53:28.859Z,23.33
2022-08-04T01:54:00.813Z,23.36
2022-08-04T01:54:33.223Z,23.34
2022-08-04T01:55:09.392Z,23.36
2022-08-04T01:55:54.897Z,23.40
2022-08-04T01:56:28.972Z,23.45
2022-08-04T01:57:38.754Z,23.49
2022-08-04T01:58:00.452Z,23.51
2022-08-04T01:58:35.813Z,23.59
2022-08-04T01:59:09.146Z,23.59
2022-08-04T01:59:45.498Z,23.62
2022-08-04T02:00:21.582Z,23.63
2022-08-04T02:00:59.906Z,23.50
2022-08-04T02:01:36.549Z,23.51
2022-08-04T02:02:08.744Z,23.52
2022-08-04T02:02:42.515Z,23.47
2022-08-04T02:03:14.501Z,23.43
2022-08-04T02:04:20.159Z,23.47
2022-08-04T02:04:38.508Z,23.42
2022-08-04T02:05:11.999Z,23.44
2022-08-04T02:06:03.729Z,23.48
2022-08-04T02:06:59.496Z,23.48
2022-08-04T02:07:43.702Z,23.50
2022-08-04T02:08:21.635Z,23.39
2022-08-04T02:09:02.364Z,23.33
2022-08-04T02:09:54.350Z,23.25
2022-08-04T02:10:43.635Z,23.17
2022-08-04T02:11:18.523Z,23.19
2022-08-04T02:12:25.016Z,23.28
2022-08-04T02:13:24.629Z,23.32
2022-08-04T02:14:12.679Z,23.12
2022-08-04T02:15:12.123Z,23.32
2022-08-04T02:16:05.090Z,23.34
2022-08-04T02:16:36.993Z,23.33
2022-08-04T02:17:23.245Z,23.25
2022-08-04T02:18:05.444Z,23.24
2022-08-04T02:18:54.097Z,23.19
2022-08-04T02:19:28.811Z,23.18
2022-08-04T02:20:19.310Z,23.17
2022-08-04T02:20:58.056Z,23.19
2022-08-04T02:21:42.463Z,23.21
2022-08-04T02:22:18.415Z,23.20
2022-08-04T02:22:59.269Z,23.23
2022-08-04T02:23:36.399Z,23.19
2022-08-04T02:24:14.592Z,23.22
2022-08-04T02:24:55.908Z,23.19
2022-08-04T02:25:30.156Z,23.10
2022-08-04T02:26:05.938Z,23.15
2022-08-04T02:26:42.916Z,23.06
2022-08-04T02:27:16.923Z,23.11
2022-08-04T02:28:06.567Z,23.23
2022-08-04T02:29:13.215Z,23.18
2022-08-04T02:29:59.751Z,23.16
2022-08-04T02:30:38.470Z,23.16
2022-08-04T02:31:15.949Z,23.19
2022-08-04T02:32:04.398Z,23.24
2022-08-04T02:32:41.660Z,23.26
2022-08-04T02:33:23.385Z,23.20
2022-08-04T02:34:10.408Z,23.21
2022-08-04T02:34:54.104Z,23.23
2022-08-04T02:35:28.215Z,23.16
2022-08-04T02:36:03.375Z,23.17
2022-08-04T02:36:39.168Z,23.09
2022-08-04T02:37:11.938Z,23.08
2022-08-04T02:37:48.315Z,23.14
2022-08-04T02:38:48.798Z,23.10
2022-08-04T02:39:22.388Z,23.11
2022-08-04T02:39:54.556Z,23.10
2022-08-04T02:40:30.086Z,23.07
2022-08-04T02:41:03.070Z,23.04
2022-08-04T02:41:36.651Z,23.05
2022-08-04T02:42:08.651Z,23.07
2022-08-04T02:42:43.355Z,23.06
2022-08-04T02:43:20.026Z,23.01
2022-08-04T02:44:12.394Z,22.96
2022-08-04T02:44:50.337Z,22.90
2022-08-04T02:45:25.307Z,22.92
2022-08-04T02:45:58.063Z,22.92
2022-08-04T02:46:31.373Z,22.91
2022-08-04T02:47:04.718Z,23.00
2022-08-04T02:48:20.271Z,23.00
2022-08-04T02:48:32.447Z,23.07
2022-08-04T02:49:09.536Z,23.17
2022-08-04T02:49:44.296Z,23.10
2022-08-04T02:50:28.538Z,23.11
2022-08-04T02:51:03.522Z,23.07
2022-08-04T02:51:42.533Z,23.07
2022-08-04T02:52:15.317Z,23.10
2022-08-04T02:52:50.399Z,23.04
2022-08-04T02:53:23.073Z,22.99
2022-08-04T02:53:57.631Z,22.93
2022-08-04T02:54:36.068Z,22.96
2022-08-04T02:55:12.026Z,22.92
2022-08-04T02:55:50.834Z,22.95
2022-08-04T02:56:26.238Z,22.88
2022-08-04T02:57:00.756Z,22.90
2022-08-04T02:57:34.379Z,22.95
2022-08-04T02:58:08.148Z,22.98
2022-08-04T02:58:42.773Z,23.00
2022-08-04T02:59:15.157Z,22.95
2022-08-04T03:00:14.390Z,22.95
2022-08-04T03:00:46.540Z,22.95
2022-08-04T03:01:18.572Z,23.01
2022-08-04T03:01:57.463Z,22.97
2022-08-04T03:03:16.873Z,22.95
2022-08-04T03:03:55.383Z,22.96
2022-08-04T03:04:43.440Z,22.88
2022-08-04T03:06:01.182Z,22.95
2022-08-04T03:06:58.444Z,22.96
2022-08-04T03:07:48.932Z,22.98
2022-08-04T03:08:23.621Z,22.95
2022-08-04T03:09:13.984Z,22.94
2022-08-04T03:10:14.358Z,22.84
2022-08-04T03:10:58.149Z,22.90
2022-08-04T03:11:35.671Z,22.89
2022-08-04T03:12:32.442Z,22.79
2022-08-04T03:13:36.924Z,22.78
2022-08-04T03:14:17.418Z,22.95
2022-08-04T03:15:11.184Z,22.88
2022-08-04T03:16:30.375Z,22.90
2022-08-04T03:17:53.065Z,23.02
2022-08-04T03:18:44.048Z,23.03
2022-08-04T03:19:15.973Z,23.02
2022-08-04T03:20:15.530Z,23.05
2022-08-04T03:21:06.033Z,23.05
2022-08-04T03:21:52.437Z,23.05
2022-08-04T03:23:13.547Z,22.99
2022-08-04T03:24:21.575Z,22.96
2022-08-04T03:25:23.581Z,22.96
2022-08-04T03:26:30.325Z,22.96
2022-08-04T03:27:20.774Z,23.02
2022-08-04T03:28:01.904Z,23.15
2022-08-04T03:29:00.585Z,23.08
2022-08-04T03:30:01.010Z,23.04
2022-08-04T03:31:10.323Z,23.06
2022-08-04T03:31:57.418Z,23.06
2022-08-04T03:32:44.130Z,23.05
2022-08-04T03:33:19.052Z,22.89
2022-08-04T03:34:19.173Z,22.94
2022-08-04T03:35:13.478Z,22.93
2022-08-04T03:35:57.670Z,22.85
2022-08-04T03:36:48.661Z,22.83
2022-08-04T03:37:37.161Z,22.92
2022-08-04T03:38:31.650Z,22.86
2022-08-04T03:39:42.019Z,22.92
2022-08-04T03:40:46.755Z,22.98
2022-08-04T03:41:51.774Z,22.89
2022-08-04T03:43:57.955Z,22.95
2022-08-04T03:44:06.484Z,23.04
2022-08-04T03:44:38.347Z,23.07
2022-08-04T03:45:50.826Z,23.09
2022-08-04T03:46:46.728Z,23.15
2022-08-04T03:47:42.401Z,22.97
2022-08-04T03:48:53.638Z,23.05
2022-08-04T03:49:42.351Z,23.09
2022-08-04T03:50:20.199Z,23.17
2022-08-04T03:51:34.926Z,23.18
2022-08-04T03:53:09.386Z,23.12
2022-08-04T03:53:50.205Z,23.23
2022-08-04T03:54:37.234Z,23.24
2022-08-04T03:55:41.222Z,23.28
2022-08-04T03:56:26.597Z,23.32
2022-08-04T03:57:04.733Z,23.39
2022-08-04T03:57:42.469Z,23.32
2022-08-04T03:58:17.165Z,23.36
2022-08-04T03:59:34.853Z,23.33
2022-08-04T04:00:14.366Z,23.33
2022-08-04T04:01:04.599Z,23.38
2022-08-04T04:02:03.104Z,23.41
2022-08-04T04:03:02.775Z,23.44
2022-08-04T04:03:53.418Z,23.46
2022-08-04T04:04:51.895Z,23.43
2022-08-04T04:05:59.818Z,23.44
2022-08-04T04:06:54.143Z,23.55
2022-08-04T04:07:59.778Z,23.51
2022-08-04T04:09:20.701Z,23.53
2022-08-04T04:10:19.131Z,23.54
2022-08-04T04:11:55.290Z,23.35
2022-08-04T04:12:48.821Z,23.45
2022-08-04T04:13:57.911Z,23.56
2022-08-04T04:15:03.692Z,23.59
2022-08-04T04:16:14.568Z,23.60
2022-08-04T04:17:01.702Z,23.62
2022-08-04T04:18:06.454Z,23.64
2022-08-04T04:19:12.148Z,23.67
2022-08-04T04:20:08.801Z,23.63
2022-08-04T04:21:09.917Z,23.66
2022-08-04T04:21:50.851Z,23.61
2022-08-04T04:22:38.313Z,23.63
2022-08-04T04:23:51.956Z,23.63
2022-08-04T04:25:08.015Z,23.64
2022-08-04T04:26:18.858Z,23.56
2022-08-04T04:27:17.956Z,23.63
2022-08-04T04:28:46.123Z,23.69
2022-08-04T04:29:47.930Z,23.73
2022-08-04T04:30:31.561Z,23.77
2022-08-04T04:31:28.085Z,23.77
2022-08-04T04:32:23.291Z,23.80
2022-08-04T04:33:14.392Z,23.81
2022-08-04T04:34:31.457Z,23.69
2022-08-04T04:35:35.618Z,23.76
2022-08-04T04:36:16.766Z,23.76
2022-08-04T04:37:13.267Z,23.62
2022-08-04T04:38:20.549Z,23.61
2022-08-04T04:39:07.068Z,23.62
2022-08-04T04:40:10.796Z,23.51
2022-08-04T04:41:11.131Z,23.60
2022-08-04T04:42:08.176Z,23.68
2022-08-04T04:42:42.970Z,23.67
2022-08-04T04:43:51.461Z,23.66
2022-08-04T04:44:20.863Z,23.74
2022-08-04T04:45:20.484Z,23.84
2022-08-04T04:46:21.892Z,23.88
2022-08-04T04:47:16.390Z,23.88
2022-08-04T04:48:08.032Z,23.71
2022-08-04T04:49:07.107Z,23.71
2022-08-04T04:49:51.951Z,23.73
2022-08-04T04:50:59.225Z,23.64
2022-08-04T04:51:44.277Z,23.81
2022-08-04T04:52:40.281Z,23.85
2022-08-04T04:53:28.522Z,23.98
2022-08-04T04:54:18.509Z,23.96
2022-08-04T04:55:00.794Z,23.98
2022-08-04T04:55:42.987Z,24.00
2022-08-04T04:56:29.142Z,23.87
2022-08-04T04:57:06.119Z,23.82
2022-08-04T04:57:54.287Z,23.73
2022-08-04T04:58:32.021Z,23.75
2022-08-04T04:59:10.699Z,23.78
2022-08-04T04:59:52.416Z,23.93
2022-08-04T05:00:35.797Z,24.03
2022-08-04T05:01:16.650Z,24.09
2022-08-04T05:02:35.643Z,24.02
2022-08-04T05:03:16.896Z,24.09
2022-08-04T05:04:26.250Z,24.14
2022-08-04T05:05:21.490Z,24.05
2022-08-04T05:06:37.680Z,24.17
2022-08-04T05:07:28.224Z,24.09
2022-08-04T05:08:56.623Z,24.09
2022-08-04T05:09:53.849Z,24.21
2022-08-04T05:11:19.868Z,24.22
2022-08-04T05:12:53.807Z,24.29
2022-08-04T05:14:35.208Z,24.34
2022-08-04T05:14:44.720Z,24.28
2022-08-04T05:15:22.627Z,24.16
2022-08-04T05:16:04.255Z,24.22
2022-08-04T05:16:46.448Z,24.36
2022-08-04T05:17:36.863Z,24.49
2022-08-04T05:18:19.331Z,24.53
2022-08-04T05:19:30.171Z,24.41
2022-08-04T05:20:14.597Z,24.46
2022-08-04T05:20:51.438Z,24.59
2022-08-04T05:21:47.385Z,24.72
2022-08-04T05:22:25.469Z,24.77
2022-08-04T05:23:02.959Z,24.75
2022-08-04T05:23:40.506Z,24.64
2022-08-04T05:24:17.180Z,24.64
2022-08-04T05:24:55.196Z,24.78
2022-08-04T05:25:34.034Z,24.76
2022-08-04T05:26:13.449Z,24.84
2022-08-04T05:26:52.291Z,24.83
2022-08-04T05:27:39.436Z,24.86
2022-08-04T05:28:27.707Z,24.93
2022-08-04T05:29:06.445Z,25.08
2022-08-04T05:29:53.084Z,25.14
2022-08-04T05:30:27.283Z,25.15
2022-08-04T05:31:03.981Z,25.14
2022-08-04T05:31:44.882Z,25.15
2022-08-04T05:32:20.217Z,25.16
2022-08-04T05:33:04.169Z,25.18
2022-08-04T05:33:47.229Z,25.17
2022-08-04T05:34:30.823Z,25.18
2022-08-04T05:35:10.125Z,25.31
2022-08-04T05:36:17.056Z,25.30
2022-08-04T05:36:49.339Z,25.25
2022-08-04T05:37:24.023Z,25.41
2022-08-04T05:38:03.284Z,25.39
2022-08-04T05:38:39.579Z,25.33
2022-08-04T05:39:15.789Z,25.48
2022-08-04T05:39:58.637Z,25.59
2022-08-04T05:40:31.034Z,25.65
2022-08-04T05:41:03.900Z,25.65
2022-08-04T05:41:45.502Z,25.63
2022-08-04T05:42:21.650Z,25.72
2022-08-04T05:42:56.885Z,25.80
2022-08-04T05:43:30.007Z,25.79
2022-08-04T05:44:03.379Z,25.77
2022-08-04T05:44:36.193Z,25.82
2022-08-04T05:45:09.665Z,25.63
2022-08-04T05:45:42.562Z,25.52
2022-08-04T05:46:16.563Z,25.47
2022-08-04T05:46:54.157Z,25.54
2022-08-04T05:47:29.389Z,25.58
2022-08-04T05:48:07.900Z,25.60
2022-08-04T05:48:42.555Z,25.49
2022-08-04T05:49:19.441Z,25.49
2022-08-04T05:50:01.538Z,25.53
2022-08-04T05:50:35.728Z,25.63
2022-08-04T05:51:10.940Z,25.73
2022-08-04T05:51:46.216Z,25.78
2022-08-04T05:52:19.851Z,25.85
2022-08-04T05:52:53.304Z,25.84
2022-08-04T05:53:32.907Z,25.95
2022-08-04T05:54:05.881Z,25.97
2022-08-04T05:54:39.128Z,26.06
2022-08-04T05:55:12.777Z,26.14
2022-08-04T05:56:06.785Z,26.16
2022-08-04T05:56:39.719Z,26.24
2022-08-04T05:57:12.623Z,26.33
2022-08-04T05:57:50.806Z,26.30
2022-08-04T05:58:26.727Z,26.34
2022-08-04T05:59:00.326Z,26.41
2022-08-04T05:59:34.268Z,26.40
2022-08-04T06:00:31.668Z,26.46
2022-08-04T06:01:02.050Z,26.48
2022-08-04T06:01:56.735Z,26.57
2022-08-04T06:02:30.601Z,26.55
2022-08-04T06:03:03.961Z,26.59
2022-08-04T06:03:37.755Z,26.62
2022-08-04T06:04:11.480Z,26.62
2022-08-04T06:04:47.027Z,26.54
2022-08-04T06:05:19.396Z,26.68
2022-08-04T06:05:52.756Z,26.63
2022-08-04T06:06:26.046Z,26.65
2022-08-04T06:07:00.051Z,26.68
2022-08-04T06:07:32.062Z,26.74
2022-08-04T06:08:13.417Z,26.82
2022-08-04T06:08:46.145Z,26.89
2022-08-04T06:09:18.148Z,26.89
2022-08-04T06:09:50.062Z,26.85
2022-08-04T06:10:29.603Z,26.87
2022-08-04T06:11:06.141Z,26.89
2022-08-04T06:12:00.516Z,26.76
2022-08-04T06:12:55.335Z,26.80
2022-08-04T06:13:47.526Z,26.67
2022-08-04T06:14:24.491Z,26.50
2022-08-04T06:14:59.757Z,26.64
2022-08-04T06:15:33.060Z,26.62
2022-08-04T06:16:17.846Z,26.55
2022-08-04T06:17:02.293Z,26.68
2022-08-04T06:19:56.483Z,26.65
2022-08-04T06:19:59.804Z,26.62
2022-08-04T06:20:02.462Z,26.75
2022-08-04T06:20:27.174Z,26.87
2022-08-04T06:21:12.100Z,26.92
2022-08-04T06:21:50.929Z,26.88
2022-08-04T06:22:25.661Z,26.87
2022-08-04T06:23:04.696Z,26.92
2022-08-04T06:23:53.658Z,26.95
2022-08-04T06:24:31.274Z,27.00
2022-08-04T06:25:06.683Z,26.96
2022-08-04T06:25:51.596Z,26.92
2022-08-04T06:26:25.978Z,27.02
2022-08-04T06:26:59.326Z,27.04
2022-08-04T06:27:32.928Z,27.07
2022-08-04T06:28:08.865Z,26.92
2022-08-04T06:28:42.756Z,26.85
2022-08-04T06:29:37.519Z,26.83
2022-08-04T06:30:14.311Z,26.74
2022-08-04T06:30:49.947Z,26.90
2022-08-04T06:32:30.769Z,26.97
2022-08-04T06:32:41.959Z,27.03
2022-08-04T06:33:33.688Z,27.14
2022-08-04T06:34:30.104Z,27.08
2022-08-04T06:35:07.726Z,27.17
2022-08-04T06:35:41.430Z,27.19
2022-08-04T06:36:14.118Z,27.27
2022-08-04T06:36:47.713Z,27.32
2022-08-04T06:37:24.154Z,27.32
2022-08-04T06:38:13.819Z,27.34
2022-08-04T06:38:47.596Z,27.28
2022-08-04T06:39:32.721Z,27.22
2022-08-04T06:40:29.666Z,27.16
2022-08-04T06:41:03.606Z,27.27
2022-08-04T06:41:36.171Z,27.25
2022-08-04T06:42:29.162Z,27.19
2022-08-04T06:43:07.211Z,27.29
2022-08-04T06:43:42.930Z,27.46
2022-08-04T06:44:16.578Z,27.56
2022-08-04T06:44:52.324Z,27.62
2022-08-04T06:45:25.195Z,27.62
2022-08-04T06:46:02.299Z,27.65
2022-08-04T06:46:39.889Z,27.73
2022-08-04T06:47:13.787Z,27.74
2022-08-04T06:47:47.741Z,27.79
2022-08-04T06:48:20.811Z,27.88
2022-08-04T06:48:56.781Z,27.98
2022-08-04T06:49:31.029Z,28.05
2022-08-04T06:51:25.334Z,28.31
2022-08-04T06:51:26.689Z,28.17
2022-08-04T06:52:03.547Z,28.44
2022-08-04T06:52:36.009Z,28.44
2022-08-04T06:53:07.981Z,28.14
2022-08-04T06:53:39.894Z,28.16
2022-08-04T06:54:12.112Z,28.25
2022-08-04T06:54:48.827Z,28.35
2022-08-04T06:55:20.812Z,28.33
2022-08-04T06:55:54.103Z,28.31
2022-08-04T06:56:27.771Z,28.42
2022-08-04T06:57:02.071Z,28.48
2022-08-04T06:57:35.164Z,28.44
2022-08-04T06:58:08.572Z,28.44
2022-08-04T06:58:41.778Z,28.36
2022-08-04T06:59:16.703Z,28.53
2022-08-04T06:59:57.261Z,28.58
2022-08-04T07:00:31.424Z,28.57
2022-08-04T07:01:04.502Z,28.60
2022-08-04T07:01:37.824Z,28.64
2022-08-04T07:02:15.762Z,28.66
2022-08-04T07:02:58.002Z,28.74
2022-08-04T07:03:32.128Z,28.62
2022-08-04T07:04:05.810Z,28.67
2022-08-04T07:04:38.099Z,28.66
2022-08-04T07:05:10.766Z,28.43
2022-08-04T07:05:43.281Z,28.10
2022-08-04T07:06:16.297Z,28.32
2022-08-04T07:06:48.274Z,28.45
2022-08-04T07:07:20.563Z,28.62
2022-08-04T07:08:11.586Z,28.77
2022-08-04T07:08:43.810Z,28.83
2022-08-04T07:09:16.122Z,28.88
2022-08-04T07:09:48.571Z,28.92
2022-08-04T07:10:22.601Z,29.08
2022-08-04T07:10:56.099Z,29.07
2022-08-04T07:11:28.589Z,29.10
2022-08-04T07:12:11.280Z,29.07
2022-08-04T07:12:44.112Z,29.21
2022-08-04T07:13:17.467Z,29.32
2022-08-04T07:13:50.277Z,29.44
2022-08-04T07:14:22.924Z,29.28
2022-08-04T07:14:56.099Z,29.30
2022-08-04T07:15:29.121Z,29.28
2022-08-04T07:16:01.603Z,29.22
2022-08-04T07:16:34.929Z,29.28
2022-08-04T07:17:09.345Z,29.39
2022-08-04T07:17:42.381Z,29.50
2022-08-04T07:18:14.511Z,29.59
2022-08-04T07:18:46.498Z,29.65
2022-08-04T07:19:19.306Z,29.57
2022-08-04T07:19:53.007Z,29.72
2022-08-04T07:20:30.462Z,29.78
2022-08-04T07:21:07.764Z,29.81
2022-08-04T07:21:39.893Z,29.92
2022-08-04T07:22:24.716Z,29.67
2022-08-04T07:23:00.069Z,29.44
2022-08-04T07:23:32.194Z,29.34
2022-08-04T07:24:04.602Z,29.39
2022-08-04T07:24:38.496Z,29.51
2022-08-04T07:25:15.908Z,29.58
2022-08-04T07:25:58.980Z,29.33
2022-08-04T07:26:43.406Z,29.40
2022-08-04T07:27:17.412Z,29.30
2022-08-04T07:28:09.779Z,29.13
2022-08-04T07:28:42.196Z,29.23
2022-08-04T07:29:14.826Z,29.46
2022-08-04T07:29:48.173Z,29.43
2022-08-04T07:30:24.635Z,29.59
2022-08-04T07:30:58.254Z,29.62
2022-08-04T07:31:33.614Z,29.53
2022-08-04T07:32:07.589Z,29.61
2022-08-04T07:32:43.815Z,29.74
2022-08-04T07:33:19.296Z,29.70
2022-08-04T07:34:17.659Z,29.69
2022-08-04T07:34:49.696Z,29.61
2022-08-04T07:36:10.729Z,29.59
2022-08-04T07:36:15.759Z,29.79
2022-08-04T07:36:50.536Z,29.82
2022-08-04T07:37:23.119Z,29.82
2022-08-04T07:38:14.197Z,29.79
2022-08-04T07:38:51.633Z,29.81
2022-08-04T07:39:27.525Z,29.91
2022-08-04T07:40:02.070Z,29.85
2022-08-04T07:40:36.301Z,29.67
2022-08-04T07:42:02.668Z,29.71
2022-08-04T07:42:35.217Z,29.97
2022-08-04T07:43:08.575Z,30.00
2022-08-04T07:43:40.792Z,29.98
2022-08-04T07:44:15.311Z,29.91
2022-08-04T07:44:48.031Z,29.82
2022-08-04T07:45:23.353Z,29.97
2022-08-04T07:45:55.306Z,30.10
2022-08-04T07:46:27.437Z,30.24
2022-08-04T07:47:07.294Z,30.33
2022-08-04T07:47:40.528Z,30.34
2022-08-04T07:48:32.576Z,30.45
2022-08-04T07:49:05.846Z,30.48
2022-08-04T07:49:56.216Z,30.43
2022-08-04T07:50:29.639Z,30.38
2022-08-04T07:51:01.760Z,30.40
2022-08-04T07:51:36.247Z,30.55
2022-08-04T07:52:08.868Z,30.55
2022-08-04T07:52:41.039Z,30.67
2022-08-04T07:53:54.442Z,30.39
2022-08-04T07:54:09.642Z,30.40
2022-08-04T07:54:42.251Z,30.39
2022-08-04T07:55:14.941Z,30.46
2022-08-04T07:55:47.390Z,30.45
2022-08-04T07:56:19.797Z,30.50
2022-08-04T07:56:52.397Z,30.55
2022-08-04T07:57:40.733Z,30.49
2022-08-04T07:58:14.071Z,30.55
2022-08-04T07:58:45.986Z,30.74
2022-08-04T07:59:20.328Z,30.76
2022-08-04T07:59:52.353Z,30.79
2022-08-04T08:00:24.636Z,30.85
2022-08-04T08:00:58.196Z,30.96
2022-08-04T08:01:31.231Z,31.05
2022-08-04T08:02:03.769Z,31.10
2022-08-04T08:02:37.216Z,30.99
2022-08-04T08:03:10.720Z,30.82
2022-08-04T08:03:43.675Z,30.79
2022-08-04T08:04:16.238Z,30.86
2022-08-04T08:04:48.846Z,30.82
2022-08-04T08:05:21.443Z,30.74
2022-08-04T08:06:16.617Z,30.69
2022-08-04T08:06:45.908Z,30.60
2022-08-04T08:07:20.362Z,30.57
2022-08-04T08:07:54.408Z,30.74
2022-08-04T08:08:27.117Z,30.89
2022-08-04T08:09:13.697Z,30.65
2022-08-04T08:09:46.270Z,30.60
2022-08-04T08:10:18.690Z,30.60
2022-08-04T08:10:51.226Z,30.78
2022-08-04T08:11:23.347Z,30.86
2022-08-04T08:12:37.269Z,30.96
2022-08-04T08:12:50.689Z,30.90
2022-08-04T08:13:24.797Z,31.08
2022-08-04T08:13:56.836Z,31.07
2022-08-04T08:14:32.054Z,31.01
2022-08-04T08:15:06.036Z,30.71
2022-08-04T08:15:41.381Z,30.75
2022-08-04T08:16:14.060Z,30.89
2022-08-04T08:16:46.922Z,31.03
2022-08-04T08:17:19.164Z,31.14
2022-08-04T08:17:58.972Z,30.91
2022-08-04T08:18:32.604Z,30.86
2022-08-04T08:19:04.909Z,31.01
2022-08-04T08:19:38.512Z,31.09
2022-08-04T08:20:11.033Z,31.19
2022-08-04T08:20:46.879Z,30.99
2022-08-04T08:21:22.888Z,30.91
2022-08-04T08:21:59.606Z,30.82
2022-08-04T08:22:33.067Z,30.76
2022-08-04T08:23:07.915Z,30.87
2022-08-04T08:23:40.582Z,30.74
2022-08-04T08:24:13.100Z,30.81
2022-08-04T08:24:45.089Z,30.92
2022-08-04T08:25:17.003Z,30.99
2022-08-04T08:25:49.131Z,30.72
2022-08-04T08:26:21.213Z,30.76
2022-08-04T08:26:53.200Z,30.81
2022-08-04T08:27:26.531Z,31.01
2022-08-04T08:27:59.717Z,31.05
2022-08-04T08:28:31.929Z,31.09
2022-08-04T08:29:04.261Z,31.18
2022-08-04T08:29:38.199Z,31.26
2022-08-04T08:30:11.498Z,31.31
2022-08-04T08:30:46.330Z,31.46
2022-08-04T08:31:56.380Z,31.58
2022-08-04T08:32:17.021Z,31.58
2022-08-04T08:32:49.649Z,31.63
2022-08-04T08:33:24.275Z,31.76
2022-08-04T08:33:57.030Z,31.75
2022-08-04T08:34:30.654Z,31.78
2022-08-04T08:35:02.685Z,31.92
2022-08-04T08:35:59.365Z,31.88
2022-08-04T08:36:57.848Z,31.60
2022-08-04T08:37:38.361Z,31.70
2022-08-04T08:38:16.174Z,31.78
2022-08-04T08:39:01.158Z,31.95
2022-08-04T08:39:59.625Z,32.03
2022-08-04T08:40:46.905Z,31.68
2022-08-04T08:41:43.536Z,31.62
2022-08-04T08:42:40.508Z,31.79
2022-08-04T08:44:06.476Z,32.02
2022-08-04T08:45:10.049Z,32.08
2022-08-04T08:45:55.005Z,31.93
2022-08-04T08:46:49.679Z,31.90
2022-08-04T08:48:05.240Z,32.11
2022-08-04T08:48:58.867Z,32.30
2022-08-04T08:50:00.141Z,32.43
2022-08-04T08:50:36.164Z,32.54
2022-08-04T08:51:18.344Z,32.75
2022-08-04T08:51:51.156Z,32.82
2022-08-04T08:53:01.188Z,32.85
2022-08-04T08:53:40.552Z,32.50
2022-08-04T08:54:27.506Z,32.20
2022-08-04T08:55:27.943Z,32.51
2022-08-04T08:56:19.038Z,32.60
2022-08-04T08:57:30.662Z,32.79
2022-08-04T08:58:11.518Z,32.53
2022-08-04T08:58:50.325Z,32.38
2022-08-04T08:59:46.648Z,32.31
2022-08-04T09:00:39.134Z,32.32
2022-08-04T09:01:30.711Z,32.57
2022-08-04T09:02:40.119Z,32.64
2022-08-04T09:03:12.240Z,32.78
2022-08-04T09:03:56.513Z,32.60
2022-08-04T09:04:40.411Z,32.74
2022-08-04T09:05:42.964Z,32.77
2022-08-04T09:06:20.883Z,32.74
2022-08-04T09:07:08.351Z,32.55
2022-08-04T09:08:11.304Z,32.46
2022-08-04T09:09:01.971Z,32.50
2022-08-04T09:09:43.597Z,32.67
2022-08-04T09:10:15.483Z,32.54
2022-08-04T09:10:50.933Z,32.65
2022-08-04T09:11:26.152Z,32.57
2022-08-04T09:12:10.086Z,32.68
2022-08-04T09:12:44.933Z,32.79
2022-08-04T09:13:30.733Z,32.58
2022-08-04T09:14:24.827Z,32.71
2022-08-04T09:15:13.822Z,32.83
2022-08-04T09:16:02.582Z,32.96
2022-08-04T09:16:37.156Z,33.16
2022-08-04T09:17:22.229Z,33.32
2022-08-04T09:17:57.384Z,33.46
2022-08-04T09:18:47.676Z,33.48
2022-08-04T09:19:38.545Z,33.54
2022-08-04T09:20:37.943Z,33.63
2022-08-04T09:21:24.446Z,33.49